Terminal Aerodrome Forecast
Issued by NWS

Home | Current Version | Previous Version | Text Only | Print | Product List | Glossary On
Versions: 1 2 3 4 5 6 7 8 9 10 11 12 13 14 15 16 17 18 19 20
000
FTUS43 KAPX 021736 AAA
TAFTVC
TAF AMD
KTVC 021736Z 0218/0318 35007KT P6SM VCTS BKN035CB
     FM021900 35007KT P6SM SCT040
     FM030100 VRB03KT P6SM BKN120
     FM030800 00000KT P6SM VCSH SCT040 BKN120
     FM031300 12004KT P6SM VCSH SCT040 BKN120=

USA.gov is the U.S. government's official web portal to all federal, state and local government web resources and services.